createdAt,value
2019-03-24T00:00:54.133Z,3.70
2019-03-24T00:03:23.472Z,3.60
2019-03-24T00:05:52.839Z,3.60
2019-03-24T00:08:22.256Z,3.50
2019-03-24T00:10:51.771Z,3.40
2019-03-24T00:13:21.188Z,3.40
2019-03-24T00:15:50.536Z,3.40
2019-03-24T00:18:19.872Z,3.40
2019-03-24T00:20:49.250Z,3.30
2019-03-24T00:23:18.607Z,3.30
2019-03-24T00:25:47.968Z,3.30
2019-03-24T00:28:17.310Z,3.20
2019-03-24T00:30:46.672Z,3.20
2019-03-24T00:33:16.099Z,3.20
2019-03-24T00:35:45.519Z,3.20
2019-03-24T00:38:14.876Z,3.20
2019-03-24T00:40:44.224Z,3.30
2019-03-24T00:43:13.580Z,3.20
2019-03-24T00:45:43.076Z,3.10
2019-03-24T00:48:14.083Z,3.00
2019-03-24T00:50:43.619Z,3.00
2019-03-24T00:53:13.012Z,2.90
2019-03-24T00:55:42.384Z,2.90
2019-03-24T00:58:11.902Z,2.90
2019-03-24T01:00:46.069Z,2.90
2019-03-24T01:03:15.593Z,2.90
2019-03-24T01:05:45.461Z,2.90
2019-03-24T01:08:15.506Z,2.80
2019-03-24T01:10:45.174Z,2.80
2019-03-24T01:13:15.183Z,2.80
2019-03-24T01:15:48.030Z,2.80
2019-03-24T01:18:16.195Z,2.70
2019-03-24T01:20:45.754Z,2.70
2019-03-24T01:23:15.268Z,2.60
2019-03-24T01:25:44.892Z,2.60
2019-03-24T01:28:15.416Z,2.60
2019-03-24T01:30:44.887Z,2.60
2019-03-24T01:33:14.341Z,2.60
2019-03-24T01:35:43.857Z,2.60
2019-03-24T01:38:13.321Z,2.60
2019-03-24T01:40:42.799Z,2.60
2019-03-24T01:43:12.162Z,2.50
2019-03-24T01:45:41.567Z,2.40
2019-03-24T01:48:11.017Z,2.30
2019-03-24T01:50:40.436Z,2.30
2019-03-24T01:53:09.879Z,2.30
2019-03-24T01:55:39.227Z,2.40
2019-03-24T01:58:08.583Z,2.30
2019-03-24T02:00:38.247Z,2.20
2019-03-24T02:03:07.617Z,2.20
2019-03-24T02:05:37.041Z,2.20
2019-03-24T02:08:06.562Z,2.10
2019-03-24T02:10:35.916Z,2.10
2019-03-24T02:13:05.439Z,2.00
2019-03-24T02:15:34.879Z,2.00
2019-03-24T02:18:04.334Z,2.00
2019-03-24T02:20:33.790Z,1.90
2019-03-24T02:23:03.307Z,1.80
2019-03-24T02:25:32.745Z,1.90
2019-03-24T02:28:02.165Z,1.80
2019-03-24T02:30:31.601Z,1.80
2019-03-24T02:33:01.015Z,1.80
2019-03-24T02:35:30.381Z,1.80
2019-03-24T02:37:59.729Z,1.80
2019-03-24T02:40:29.103Z,1.80
2019-03-24T02:42:58.529Z,1.80
2019-03-24T02:45:27.906Z,1.80
2019-03-24T02:47:57.321Z,1.80
2019-03-24T02:50:26.791Z,1.70
2019-03-24T02:52:56.138Z,1.80
2019-03-24T02:55:25.508Z,1.80
2019-03-24T02:57:55.071Z,1.70
2019-03-24T03:00:24.647Z,1.70
2019-03-24T03:02:53.991Z,1.80
2019-03-24T03:05:23.367Z,1.70
2019-03-24T03:07:52.721Z,1.60
2019-03-24T03:10:22.232Z,1.60
2019-03-24T03:12:51.647Z,1.70
2019-03-24T03:15:21.107Z,1.70
2019-03-24T03:17:50.451Z,1.70
2019-03-24T03:20:19.974Z,1.70
2019-03-24T03:22:49.411Z,1.70
2019-03-24T03:25:18.914Z,1.70
2019-03-24T03:27:48.366Z,1.70
2019-03-24T03:30:17.966Z,1.70
2019-03-24T03:32:47.390Z,1.70
2019-03-24T03:35:16.961Z,1.60
2019-03-24T03:37:46.527Z,1.60
2019-03-24T03:40:16.016Z,1.60
2019-03-24T03:42:45.844Z,1.70
2019-03-24T03:45:19.577Z,1.70
2019-03-24T03:47:49.008Z,1.80
2019-03-24T03:50:18.432Z,1.80
2019-03-24T03:52:47.805Z,1.80
2019-03-24T03:55:17.157Z,1.70
2019-03-24T03:57:46.606Z,1.70
2019-03-24T04:00:16.419Z,1.70
2019-03-24T04:02:45.870Z,1.80
2019-03-24T04:05:15.380Z,1.90
2019-03-24T04:07:44.833Z,1.90
2019-03-24T04:10:14.346Z,2.00
2019-03-24T04:12:43.718Z,2.00
2019-03-24T04:15:13.214Z,2.00
2019-03-24T04:17:42.580Z,2.00
2019-03-24T04:20:12.127Z,2.10
2019-03-24T04:22:41.602Z,2.10
2019-03-24T04:25:11.196Z,2.10
2019-03-24T04:27:40.768Z,2.20
2019-03-24T04:30:10.610Z,2.20
2019-03-24T04:32:39.997Z,2.30
2019-03-24T04:35:09.877Z,2.30
2019-03-24T04:37:39.348Z,2.30
2019-03-24T04:40:09.006Z,2.30
2019-03-24T04:42:38.487Z,2.40
2019-03-24T04:47:36.914Z,2.40
2019-03-24T04:50:07.610Z,2.40
2019-03-24T04:52:38.167Z,2.40
2019-03-24T04:55:08.782Z,2.40
2019-03-24T04:57:38.293Z,2.40
2019-03-24T05:00:08.471Z,2.40
2019-03-24T05:02:38.147Z,2.30
2019-03-24T05:05:09.114Z,2.40
2019-03-24T05:07:40.149Z,2.40
2019-03-24T05:10:14.447Z,2.40
2019-03-24T05:12:43.809Z,2.50
2019-03-24T05:15:13.312Z,2.50
2019-03-24T05:17:42.734Z,2.50
2019-03-24T05:20:12.254Z,2.60
2019-03-24T05:22:41.624Z,2.60
2019-03-24T05:25:11.000Z,2.60
2019-03-24T05:27:40.370Z,2.70
2019-03-24T05:30:09.901Z,2.70
2019-03-24T05:32:39.265Z,2.70
2019-03-24T05:35:08.709Z,2.80
2019-03-24T05:37:38.058Z,2.80
2019-03-24T05:40:07.591Z,2.90
2019-03-24T05:42:37.021Z,3.00
2019-03-24T05:45:07.071Z,3.10
2019-03-24T05:47:37.404Z,3.10
2019-03-24T05:50:07.242Z,3.20
2019-03-24T05:52:36.594Z,3.30
2019-03-24T05:55:06.641Z,3.30
2019-03-24T05:57:35.982Z,3.40
2019-03-24T06:00:06.062Z,3.40
2019-03-24T06:02:35.427Z,3.50
2019-03-24T06:05:05.105Z,3.50
2019-03-24T06:07:34.465Z,3.50
2019-03-24T06:10:04.120Z,3.60
2019-03-24T06:12:33.475Z,3.70
2019-03-24T06:15:02.941Z,3.80
2019-03-24T06:17:32.409Z,3.80
2019-03-24T06:20:01.860Z,3.70
2019-03-24T06:22:31.230Z,3.70
2019-03-24T06:25:00.625Z,3.80
2019-03-24T06:27:29.982Z,3.80
2019-03-24T06:29:59.339Z,3.80
2019-03-24T06:32:28.694Z,3.80
2019-03-24T06:34:58.182Z,3.80
2019-03-24T06:37:27.631Z,3.90
2019-03-24T06:39:57.102Z,3.90
2019-03-24T06:42:26.511Z,3.90
2019-03-24T06:44:56.067Z,3.90
2019-03-24T06:47:25.442Z,3.80
2019-03-24T06:49:54.844Z,3.80
2019-03-24T06:52:24.363Z,3.80
2019-03-24T06:54:53.715Z,3.90
2019-03-24T06:57:23.083Z,3.90
2019-03-24T06:59:52.435Z,4.00
2019-03-24T07:02:21.965Z,4.20
2019-03-24T07:04:51.382Z,4.20
2019-03-24T07:07:20.747Z,4.30
2019-03-24T07:09:50.187Z,4.50
2019-03-24T07:12:19.554Z,4.60
2019-03-24T07:14:48.918Z,4.60
2019-03-24T07:17:18.288Z,4.70
2019-03-24T07:19:47.725Z,4.90
2019-03-24T07:22:17.184Z,5.10
2019-03-24T07:24:46.691Z,5.10
2019-03-24T07:27:16.124Z,5.20
2019-03-24T07:29:45.474Z,5.20
2019-03-24T07:32:14.847Z,5.50
2019-03-24T07:34:44.189Z,5.40
2019-03-24T07:37:13.904Z,5.30
2019-03-24T07:39:43.260Z,5.20
2019-03-24T07:42:12.655Z,5.20
2019-03-24T07:44:42.131Z,5.30
2019-03-24T07:47:13.841Z,5.40
2019-03-24T07:49:43.935Z,5.60
2019-03-24T07:52:13.389Z,5.80
2019-03-24T07:54:42.746Z,6.20
2019-03-24T07:57:12.127Z,6.20
2019-03-24T07:59:41.478Z,6.10
2019-03-24T08:02:10.846Z,6.10
2019-03-24T08:04:40.200Z,6.10
2019-03-24T08:07:09.571Z,6.00
2019-03-24T08:09:38.934Z,6.20
2019-03-24T08:12:08.598Z,6.50
2019-03-24T08:14:38.090Z,6.60
2019-03-24T08:17:07.471Z,6.50
2019-03-24T08:19:36.833Z,6.40
2019-03-24T08:22:06.216Z,6.60
2019-03-24T08:24:35.576Z,6.60
2019-03-24T08:27:05.181Z,6.60
2019-03-24T08:29:34.794Z,6.70
2019-03-24T08:32:04.239Z,7.10
2019-03-24T08:34:33.803Z,7.20
2019-03-24T08:37:03.186Z,7.40
2019-03-24T08:39:32.535Z,7.50
2019-03-24T08:42:02.043Z,7.80
2019-03-24T08:44:31.459Z,8.00
2019-03-24T08:47:00.840Z,8.20
2019-03-24T08:49:30.195Z,8.30
2019-03-24T08:51:59.587Z,8.60
2019-03-24T08:54:29.025Z,8.80
2019-03-24T08:56:58.561Z,9.20
2019-03-24T08:59:27.925Z,9.40
2019-03-24T09:01:57.298Z,9.50
2019-03-24T09:04:26.734Z,9.70
2019-03-24T09:06:56.256Z,9.90
2019-03-24T09:09:25.620Z,9.70
2019-03-24T09:11:54.988Z,9.80
2019-03-24T09:14:24.346Z,9.70
2019-03-24T09:16:53.710Z,9.50
2019-03-24T09:19:23.139Z,9.30
2019-03-24T09:21:52.513Z,9.50
2019-03-24T09:24:22.074Z,9.70
2019-03-24T09:26:51.517Z,9.80
2019-03-24T09:29:20.877Z,9.80
2019-03-24T09:31:50.222Z,9.90
2019-03-24T09:34:19.593Z,10.40
2019-03-24T09:36:48.957Z,11.00
2019-03-24T09:39:18.408Z,11.20
2019-03-24T09:41:47.794Z,11.70
2019-03-24T09:44:17.211Z,11.80
2019-03-24T09:46:46.686Z,12.00
2019-03-24T09:49:16.214Z,12.00
2019-03-24T09:51:45.706Z,12.10
2019-03-24T09:54:15.212Z,12.10
2019-03-24T09:56:44.842Z,12.00
2019-03-24T09:59:14.217Z,11.90
2019-03-24T10:01:43.665Z,11.80
2019-03-24T10:04:13.174Z,11.70
2019-03-24T10:06:42.548Z,11.70
2019-03-24T10:09:12.001Z,12.00
2019-03-24T10:11:41.362Z,12.00
2019-03-24T10:14:10.737Z,12.30
2019-03-24T10:16:40.094Z,12.30
2019-03-24T10:19:13.987Z,12.00
2019-03-24T10:21:40.838Z,12.00
2019-03-24T10:24:10.279Z,12.40
2019-03-24T10:26:39.647Z,12.70
2019-03-24T10:29:09.049Z,12.90
2019-03-24T10:31:38.475Z,12.80
2019-03-24T10:34:07.942Z,12.30
2019-03-24T10:36:37.303Z,12.30
2019-03-24T10:39:07.462Z,12.60
2019-03-24T10:41:36.879Z,12.90
2019-03-24T10:44:06.402Z,13.20
2019-03-24T10:46:35.749Z,13.10
2019-03-24T10:49:05.270Z,13.30
2019-03-24T10:51:34.619Z,13.40
2019-03-24T10:54:04.110Z,13.60
2019-03-24T10:56:33.459Z,13.80
2019-03-24T10:59:02.883Z,13.40
2019-03-24T11:01:32.262Z,12.90
2019-03-24T11:04:01.675Z,12.80
2019-03-24T11:06:31.060Z,12.60
2019-03-24T11:09:00.416Z,12.50
2019-03-24T11:11:29.892Z,12.30
2019-03-24T11:13:59.243Z,11.90
2019-03-24T11:16:28.698Z,11.80
2019-03-24T11:18:58.048Z,11.60
2019-03-24T11:21:27.600Z,11.40
2019-03-24T11:23:57.030Z,11.30
2019-03-24T11:26:26.494Z,11.30
2019-03-24T11:28:55.919Z,11.50
2019-03-24T11:31:25.379Z,11.50
2019-03-24T11:33:54.871Z,11.40
2019-03-24T11:36:24.616Z,11.30
2019-03-24T11:38:54.031Z,11.20
2019-03-24T11:41:24.058Z,11.00
2019-03-24T11:49:16.531Z,10.70
2019-03-24T11:55:46.715Z,11.00
2019-03-24T12:07:19.134Z,11.80
2019-03-24T12:10:38.992Z,12.10
2019-03-24T12:14:31.125Z,12.10
2019-03-24T12:17:26.000Z,12.00
2019-03-24T12:21:18.100Z,12.10
2019-03-24T12:24:00.446Z,12.10
2019-03-24T12:26:46.155Z,11.80
2019-03-24T12:29:53.589Z,11.90
2019-03-24T12:32:44.975Z,11.80
2019-03-24T12:35:46.695Z,11.70
2019-03-24T12:38:42.246Z,11.60
2019-03-24T12:41:11.816Z,11.50
2019-03-24T12:43:41.360Z,11.00
2019-03-24T12:46:10.813Z,11.00
2019-03-24T12:48:40.199Z,10.90
2019-03-24T12:51:09.651Z,10.90
2019-03-24T12:53:39.039Z,10.90
2019-03-24T12:56:08.539Z,10.80
2019-03-24T12:58:37.911Z,10.80
2019-03-24T13:01:07.483Z,10.80
2019-03-24T13:03:36.862Z,10.90
2019-03-24T13:06:06.483Z,11.10
2019-03-24T13:08:35.893Z,11.30
2019-03-24T13:11:05.342Z,11.30
2019-03-24T13:13:34.870Z,11.30
2019-03-24T13:16:04.310Z,11.20
2019-03-24T13:18:33.763Z,11.10
2019-03-24T13:21:03.203Z,11.20
2019-03-24T13:23:32.650Z,11.60
2019-03-24T13:26:02.024Z,12.20
2019-03-24T13:28:31.491Z,12.50
2019-03-24T13:31:00.875Z,12.70
2019-03-24T13:33:30.300Z,12.70
2019-03-24T13:36:07.675Z,12.80
2019-03-24T13:38:37.311Z,12.70
2019-03-24T13:41:06.879Z,12.70
2019-03-24T13:43:36.291Z,12.60
2019-03-24T13:46:05.976Z,12.60
2019-03-24T13:48:35.495Z,12.60
2019-03-24T13:51:05.000Z,12.60
2019-03-24T13:53:34.481Z,12.60
2019-03-24T13:56:04.774Z,12.60
2019-03-24T13:58:34.327Z,12.70
2019-03-24T14:01:05.347Z,12.70
2019-03-24T14:03:34.780Z,12.60
2019-03-24T14:06:04.751Z,12.40
2019-03-24T14:08:34.186Z,12.30
2019-03-24T14:11:03.560Z,12.50
2019-03-24T14:13:32.929Z,12.50
2019-03-24T14:16:02.377Z,12.60
2019-03-24T14:18:31.798Z,12.50
2019-03-24T14:21:01.158Z,12.30
2019-03-24T14:23:30.576Z,12.20
2019-03-24T14:26:00.147Z,12.20
2019-03-24T14:28:29.503Z,12.20
2019-03-24T14:30:58.879Z,12.20
2019-03-24T14:33:28.332Z,12.20
2019-03-24T14:35:57.703Z,12.10
2019-03-24T14:38:27.047Z,12.00
2019-03-24T14:40:56.510Z,11.90
2019-03-24T14:43:25.876Z,11.90
2019-03-24T14:45:55.410Z,11.80
2019-03-24T14:48:24.762Z,11.70
2019-03-24T14:50:55.058Z,11.60
2019-03-24T14:53:24.589Z,11.70
2019-03-24T14:55:54.028Z,11.80
2019-03-24T14:58:23.467Z,11.70
2019-03-24T15:00:52.998Z,11.60
2019-03-24T15:03:22.515Z,11.60
2019-03-24T15:05:51.915Z,11.40
2019-03-24T15:08:21.336Z,11.40
2019-03-24T15:10:50.758Z,11.40
2019-03-24T15:13:20.249Z,11.40
2019-03-24T15:15:49.778Z,11.30
2019-03-24T15:18:19.200Z,11.20
2019-03-24T15:20:48.642Z,11.20
2019-03-24T15:23:19.186Z,11.00
2019-03-24T15:25:48.558Z,11.00
2019-03-24T15:28:17.997Z,10.90
2019-03-24T15:30:47.439Z,10.80
2019-03-24T15:33:16.892Z,10.80
2019-03-24T15:35:46.300Z,10.80
2019-03-24T15:38:15.670Z,10.80
2019-03-24T15:40:45.108Z,10.80
2019-03-24T15:43:14.495Z,10.80
2019-03-24T15:45:43.868Z,10.70
2019-03-24T15:48:13.350Z,10.50
2019-03-24T15:50:42.709Z,10.50
2019-03-24T15:53:12.166Z,10.50
2019-03-24T15:55:43.682Z,10.50
2019-03-24T16:02:07.261Z,10.40
2019-03-24T16:05:12.707Z,10.40
2019-03-24T16:08:45.851Z,10.40
2019-03-24T16:11:54.959Z,10.30
2019-03-24T16:15:14.314Z,10.20
2019-03-24T16:22:31.654Z,10.00
2019-03-24T16:25:52.657Z,10.00
2019-03-24T16:28:33.068Z,9.90
2019-03-24T16:31:02.602Z,9.90
2019-03-24T16:33:32.156Z,9.80
2019-03-24T16:36:03.335Z,9.80
2019-03-24T16:38:33.289Z,9.70
2019-03-24T16:41:02.856Z,9.70
2019-03-24T16:43:32.309Z,9.70
2019-03-24T16:46:01.906Z,9.70
2019-03-24T16:48:36.692Z,9.50
2019-03-24T16:51:02.471Z,9.50
2019-03-24T16:53:31.993Z,9.50
2019-03-24T16:56:01.455Z,9.50
2019-03-24T16:58:30.905Z,9.40
2019-03-24T17:01:00.367Z,9.30
2019-03-24T17:03:29.783Z,9.30
2019-03-24T17:05:59.154Z,9.30
2019-03-24T17:08:28.679Z,9.20
2019-03-24T17:10:58.069Z,9.20
2019-03-24T17:13:27.606Z,9.20
2019-03-24T17:15:57.161Z,9.10
2019-03-24T17:18:26.708Z,9.10
2019-03-24T17:20:57.190Z,9.00
2019-03-24T17:23:26.751Z,8.90
2019-03-24T17:25:56.328Z,8.80
2019-03-24T17:28:25.756Z,8.70
2019-03-24T17:30:55.327Z,8.50
2019-03-24T17:33:24.847Z,8.50
2019-03-24T17:35:54.341Z,8.40
2019-03-24T17:38:23.769Z,8.30
2019-03-24T17:40:53.258Z,8.20
2019-03-24T17:43:22.741Z,8.30
2019-03-24T17:45:52.197Z,8.20
2019-03-24T17:48:21.596Z,8.30
2019-03-24T17:50:51.147Z,8.30
2019-03-24T17:53:20.772Z,8.30
2019-03-24T17:55:50.349Z,8.30
2019-03-24T17:58:19.894Z,8.30
2019-03-24T18:00:52.660Z,8.30
2019-03-24T18:03:22.237Z,8.20
2019-03-24T18:05:51.570Z,8.20
2019-03-24T18:08:21.070Z,8.10
2019-03-24T18:10:51.115Z,8.10
2019-03-24T18:13:20.703Z,8.00
2019-03-24T18:15:50.490Z,8.00
2019-03-24T18:18:19.991Z,8.00
2019-03-24T18:20:49.712Z,8.00
2019-03-24T18:23:19.352Z,7.90
2019-03-24T18:25:49.081Z,7.80
2019-03-24T18:28:18.658Z,7.80
2019-03-24T18:30:48.142Z,7.70
2019-03-24T18:33:17.728Z,7.70
2019-03-24T18:35:47.253Z,7.70
2019-03-24T18:38:16.802Z,7.70
2019-03-24T18:40:46.426Z,7.50
2019-03-24T18:43:16.255Z,7.50
2019-03-24T18:45:46.239Z,7.50
2019-03-24T18:48:15.834Z,7.50
2019-03-24T18:50:45.414Z,7.50
2019-03-24T18:53:14.845Z,7.50
2019-03-24T18:55:44.467Z,7.60
2019-03-24T18:58:14.064Z,7.70
2019-03-24T19:00:43.619Z,7.70
2019-03-24T19:03:13.216Z,7.70
2019-03-24T19:05:42.858Z,7.70
2019-03-24T19:08:12.403Z,7.70
2019-03-24T19:10:41.932Z,7.70
2019-03-24T19:13:12.518Z,7.70
2019-03-24T19:15:42.056Z,7.70
2019-03-24T19:18:11.627Z,7.70
2019-03-24T19:20:41.199Z,7.70
2019-03-24T19:23:10.690Z,7.70
2019-03-24T19:25:40.263Z,7.70
2019-03-24T19:28:09.763Z,7.70
2019-03-24T19:30:41.969Z,7.70
2019-03-24T19:33:11.591Z,7.70
2019-03-24T19:35:41.180Z,7.70
2019-03-24T19:38:10.927Z,7.80
2019-03-24T19:40:40.704Z,7.70
2019-03-24T19:43:10.248Z,7.60
2019-03-24T19:45:39.864Z,7.60
2019-03-24T19:48:09.546Z,7.60
2019-03-24T19:50:39.132Z,7.50
2019-03-24T19:53:08.595Z,7.60
2019-03-24T19:55:38.203Z,7.50
2019-03-24T19:58:07.696Z,7.50
2019-03-24T20:00:37.305Z,7.50
2019-03-24T20:03:06.946Z,7.40
2019-03-24T20:05:36.410Z,7.40
2019-03-24T20:08:06.107Z,7.30
2019-03-24T20:10:35.641Z,7.30
2019-03-24T20:13:05.302Z,7.30
2019-03-24T20:15:35.834Z,7.20
2019-03-24T20:18:05.586Z,7.20
2019-03-24T20:20:35.145Z,7.20
2019-03-24T20:23:04.779Z,7.10
2019-03-24T20:25:34.214Z,7.10
2019-03-24T20:28:03.927Z,7.10
2019-03-24T20:30:33.511Z,7.00
2019-03-24T20:33:03.015Z,7.00
2019-03-24T20:35:32.451Z,6.90
2019-03-24T20:38:01.844Z,6.80
2019-03-24T20:40:31.307Z,6.80
2019-03-24T20:43:00.899Z,6.70
2019-03-24T20:45:30.471Z,6.70
2019-03-24T20:47:59.991Z,6.60
2019-03-24T20:50:29.520Z,6.60
2019-03-24T20:53:04.159Z,6.60
2019-03-24T20:55:30.287Z,6.60
2019-03-24T20:57:59.730Z,6.60
2019-03-24T21:00:34.522Z,6.60
2019-03-24T21:03:04.425Z,6.50
2019-03-24T21:05:34.927Z,6.50
2019-03-24T21:08:04.561Z,6.40
2019-03-24T21:10:33.971Z,6.40
2019-03-24T21:13:03.552Z,6.40
2019-03-24T21:15:33.168Z,6.40
2019-03-24T21:18:02.787Z,6.30
2019-03-24T21:20:32.354Z,6.30
2019-03-24T21:23:01.858Z,6.20
2019-03-24T21:25:31.391Z,6.20
2019-03-24T21:28:00.827Z,6.10
2019-03-24T21:30:34.484Z,6.10
2019-03-24T21:33:04.222Z,6.00
2019-03-24T21:35:33.720Z,6.00
2019-03-24T21:38:03.433Z,5.90
2019-03-24T21:40:33.081Z,5.90
2019-03-24T21:43:02.635Z,5.90
2019-03-24T21:45:32.286Z,6.00
2019-03-24T21:48:01.714Z,6.00
2019-03-24T21:50:31.163Z,6.00
2019-03-24T21:53:00.657Z,6.00
2019-03-24T21:55:30.203Z,6.00
2019-03-24T21:57:59.593Z,6.00
2019-03-24T22:00:36.215Z,6.00
2019-03-24T22:03:06.214Z,6.00
2019-03-24T22:05:36.368Z,6.00
2019-03-24T22:08:06.366Z,6.10
2019-03-24T22:10:35.874Z,6.00
2019-03-24T22:13:05.947Z,6.10
2019-03-24T22:15:35.557Z,6.10
2019-03-24T22:18:05.396Z,6.00
2019-03-24T22:20:34.837Z,6.00
2019-03-24T22:23:04.365Z,6.00
2019-03-24T22:25:34.914Z,6.00
2019-03-24T22:28:04.550Z,6.00
2019-03-24T22:30:33.919Z,6.00
2019-03-24T22:33:03.425Z,5.90
2019-03-24T22:35:32.794Z,5.90
2019-03-24T22:38:02.128Z,5.80
2019-03-24T22:40:31.498Z,5.80
2019-03-24T22:43:00.846Z,5.70
2019-03-24T22:45:30.228Z,5.70
2019-03-24T22:47:59.571Z,5.60
2019-03-24T22:50:29.014Z,5.50
2019-03-24T22:52:58.452Z,5.50
2019-03-24T22:55:27.823Z,5.50
2019-03-24T22:57:57.299Z,5.50
2019-03-24T23:00:45.802Z,5.40
2019-03-24T23:03:15.301Z,5.40
2019-03-24T23:05:44.843Z,5.30
2019-03-24T23:08:14.191Z,5.30
2019-03-24T23:10:43.633Z,5.30
2019-03-24T23:13:13.043Z,5.20
2019-03-24T23:15:42.435Z,5.20
2019-03-24T23:18:11.876Z,5.20
2019-03-24T23:20:41.267Z,5.20
2019-03-24T23:23:10.714Z,5.20
2019-03-24T23:25:40.154Z,5.10
2019-03-24T23:28:09.501Z,5.10
2019-03-24T23:30:38.959Z,5.00
2019-03-24T23:33:08.456Z,5.00
2019-03-24T23:35:37.988Z,4.90
2019-03-24T23:38:07.339Z,4.90
2019-03-24T23:40:36.779Z,4.90
2019-03-24T23:43:06.455Z,4.80
2019-03-24T23:45:35.892Z,4.80
2019-03-24T23:48:05.608Z,4.80
2019-03-24T23:50:35.049Z,4.70
2019-03-24T23:53:04.647Z,4.70
2019-03-24T23:55:34.113Z,4.60
2019-03-24T23:58:03.533Z,4.60
